Time;durP1;ratioP1;P1;durP2;ratioP2;P2;SDS_P1;SDS_P2;PMS_P1;PMS_P2;Temp;Humidity;BMP_temperature;BMP_pressure;BME280_temperature;BME280_humidity;BME280_pressure;Samples;Min_cycle;Max_cycle;Signal;HPM_P1;HPM_P2
2022/10/02 00:02:20;;;;;;;1.33;0.55;;;;;;;16.22;100.00;100856.75;5026408;28;20039;-76
2022/10/02 00:04:48;;;;;;;2.78;0.38;;;;;;;16.23;100.00;100866.81;5029198;28;20038;-76
2022/10/02 00:07:14;;;;;;;2.67;0.68;;;;;;;16.22;100.00;100864.34;5058797;28;20499;-76
2022/10/02 00:09:46;;;;;;;0.93;0.40;;;;;;;16.21;100.00;100869.09;5042247;28;20040;-76
2022/10/02 00:12:14;;;;;;;2.25;0.30;;;;;;;16.22;100.00;100865.16;5047932;28;20492;-76
2022/10/02 00:14:40;;;;;;;2.33;0.40;;;;;;;16.19;100.00;100865.81;5058256;28;20036;-76
2022/10/02 00:17:06;;;;;;;2.70;0.65;;;;;;;16.19;100.00;100873.41;5012048;28;20032;-76
2022/10/02 00:19:31;;;;;;;2.72;0.47;;;;;;;16.21;100.00;100873.88;5046607;28;20031;-76
2022/10/02 00:22:00;;;;;;;2.78;0.55;;;;;;;16.19;100.00;100882.63;5028106;28;20049;-76
2022/10/02 00:24:28;;;;;;;2.15;0.50;;;;;;;16.18;100.00;100872.56;5044570;28;20029;-76
2022/10/02 00:27:14;;;;;;;2.78;0.60;;;;;;;16.18;100.00;100880.13;5044780;28;20032;-76
2022/10/02 00:29:54;;;;;;;2.20;0.50;;;;;;;16.19;100.00;100874.22;5050656;28;20100;-76
2022/10/02 00:32:44;;;;;;;2.63;0.60;;;;;;;16.17;100.00;100879.31;5050771;28;20032;-76
2022/10/02 00:35:12;;;;;;;3.33;0.50;;;;;;;16.18;100.00;100880.97;5069495;28;20412;-75
2022/10/02 00:37:42;;;;;;;4.47;0.70;;;;;;;16.18;100.00;100880.13;5050679;28;20032;-76
2022/10/02 00:40:49;;;;;;;8.05;0.88;;;;;;;16.16;100.00;100880.47;5042332;28;20035;-76
2022/10/02 00:43:14;;;;;;;4.40;0.82;;;;;;;16.15;100.00;100872.38;5041185;28;20132;-76
2022/10/02 00:45:45;;;;;;;7.93;1.50;;;;;;;16.13;100.00;100867.13;5059682;28;20080;-76
2022/10/02 00:48:34;;;;;;;3.65;0.73;;;;;;;16.13;100.00;100853.09;5053409;28;20389;-76
2022/10/02 00:51:22;;;;;;;4.05;0.80;;;;;;;16.12;100.00;100857.03;5044141;28;20389;-75
2022/10/02 00:53:56;;;;;;;6.15;1.00;;;;;;;16.13;100.00;100867.13;5086072;28;20054;-75
2022/10/02 00:56:34;;;;;;;5.85;0.90;;;;;;;16.12;100.00;100864.63;5060594;28;20082;-75
2022/10/02 00:59:28;;;;;;;4.60;0.95;;;;;;;16.07;100.00;100869.22;5078605;28;20040;-75
2022/10/02 01:02:00;;;;;;;7.05;1.10;;;;;;;16.08;100.00;100865.28;5030179;28;20074;-76
2022/10/02 01:04:29;;;;;;;9.55;1.88;;;;;;;16.08;100.00;100858.84;5044731;28;20037;-76
2022/10/02 01:06:55;;;;;;;8.60;1.55;;;;;;;16.07;100.00;100862.78;5043975;28;20087;-75
2022/10/02 01:09:20;;;;;;;5.78;1.10;;;;;;;16.08;100.00;100864.44;5012299;28;20119;-76
2022/10/02 01:11:45;;;;;;;5.35;1.30;;;;;;;16.07;100.00;100865.59;5039038;28;20044;-76
2022/10/02 01:14:11;;;;;;;7.20;1.50;;;;;;;16.04;100.00;100860.63;5042646;28;20054;-76
2022/10/02 01:16:36;;;;;;;7.43;1.38;;;;;;;16.04;100.00;100867.06;5027055;28;20032;-75
2022/10/02 01:19:02;;;;;;;7.45;1.50;;;;;;;16.03;100.00;100859.00;5009413;28;20033;-75
2022/10/02 01:21:41;;;;;;;7.80;1.73;;;;;;;16.02;100.00;100860.97;5010628;28;20033;-75
2022/10/02 01:24:26;;;;;;;9.95;1.90;;;;;;;16.02;100.00;100860.97;5008838;28;20036;-76
2022/10/02 01:26:52;;;;;;;11.20;1.65;;;;;;;16.03;100.00;100871.00;5030724;28;20092;-76
2022/10/02 01:29:17;;;;;;;13.00;1.70;;;;;;;16.01;100.00;100878.09;5043488;28;20384;-76
2022/10/02 01:31:43;;;;;;;5.82;1.45;;;;;;;16.02;100.00;100879.75;5007701;28;20029;-76
2022/10/02 01:34:08;;;;;;;10.20;1.55;;;;;;;16.02;100.00;100869.38;5060126;28;20035;-75
2022/10/02 01:36:34;;;;;;;8.95;2.03;;;;;;;16.00;100.00;100870.84;5043241;28;20021;-76
2022/10/02 01:38:59;;;;;;;5.22;1.25;;;;;;;16.01;100.00;100875.28;5010293;28;20033;-76
2022/10/02 01:41:25;;;;;;;12.25;1.77;;;;;;;16.00;100.00;100879.25;5020136;28;20400;-76
2022/10/02 01:43:52;;;;;;;7.70;1.33;;;;;;;16.00;100.00;100866.06;5010373;28;20029;-76
2022/10/02 01:46:38;;;;;;;8.40;1.85;;;;;;;16.00;100.00;100870.84;5007005;28;20048;-75
2022/10/02 01:49:30;;;;;;;9.32;1.48;;;;;;;15.98;100.00;100871.16;5057760;28;20043;-76
2022/10/02 01:52:38;;;;;;;6.53;1.90;;;;;;;15.99;100.00;100866.38;5046427;28;20039;-75
2022/10/02 01:55:34;;;;;;;12.90;2.22;;;;;;;15.99;100.00;100858.81;5041214;28;20047;-75
2022/10/02 01:58:40;;;;;;;7.72;1.52;;;;;;;15.98;100.00;100864.72;5033261;28;20024;-76
2022/10/02 02:01:29;;;;;;;9.35;1.73;;;;;;;16.00;100.00;100868.03;5057696;28;20040;-76
2022/10/02 02:04:27;;;;;;;11.32;1.80;;;;;;;15.96;100.00;100869.81;5026831;28;20085;-76
2022/10/02 02:07:02;;;;;;;8.48;1.58;;;;;;;15.95;100.00;100863.38;5023065;28;20106;-76
2022/10/02 02:09:41;;;;;;;11.45;1.95;;;;;;;15.96;100.00;100861.41;5028213;28;20519;-75
2022/10/02 02:12:25;;;;;;;9.32;1.75;;;;;;;15.93;100.00;100870.47;5052248;28;20041;-76
2022/10/02 02:15:00;;;;;;;5.50;1.50;;;;;;;15.94;100.00;100863.72;5026563;28;20032;-76
2022/10/02 02:17:27;;;;;;;12.70;2.25;;;;;;;15.92;100.00;100861.25;5020671;28;20042;-76
2022/10/02 02:20:00;;;;;;;7.13;1.65;;;;;;;15.91;100.00;100854.00;5025302;28;20048;-76
2022/10/02 02:22:27;;;;;;;8.70;1.45;;;;;;;15.92;100.00;100860.41;5031065;28;20036;-76
2022/10/02 02:25:26;;;;;;;13.82;2.10;;;;;;;15.90;100.00;100862.69;5069369;28;20041;-76
2022/10/02 02:27:56;;;;;;;16.75;2.10;;;;;;;15.91;100.00;100855.94;5044878;28;20412;-76
2022/10/02 02:30:21;;;;;;;8.43;2.28;;;;;;;15.88;100.00;100862.19;5010274;28;20048;-75
2022/10/02 02:32:52;;;;;;;12.52;1.88;;;;;;;15.88;100.00;100867.78;5042115;28;20029;-76
2022/10/02 02:35:40;;;;;;;11.25;2.00;;;;;;;15.87;100.00;100866.97;5035049;28;20480;-76
2022/10/02 02:38:23;;;;;;;11.73;2.40;;;;;;;15.85;100.00;100870.09;5088607;28;20657;-76
2022/10/02 02:40:49;;;;;;;12.00;2.20;;;;;;;15.85;100.00;100870.09;5013523;28;20055;-76
2022/10/02 02:43:18;;;;;;;14.30;2.85;;;;;;;15.87;100.00;100861.38;5042233;28;20036;-76
2022/10/02 02:46:08;;;;;;;14.25;2.30;;;;;;;15.84;100.00;100854.44;5040817;28;20138;-76
2022/10/02 02:48:45;;;;;;;11.43;1.75;;;;;;;15.84;100.00;100854.44;5032376;28;20548;-76
2022/10/02 02:51:14;;;;;;;13.35;2.28;;;;;;;15.84;100.00;100845.22;5024888;28;20055;-76
2022/10/02 02:53:43;;;;;;;11.82;2.15;;;;;;;15.83;100.00;100846.38;5043577;28;20063;-76
2022/10/02 02:56:10;;;;;;;14.98;2.60;;;;;;;15.82;100.00;100851.16;5042308;28;20039;-75
2022/10/02 02:58:54;;;;;;;14.63;2.63;;;;;;;15.83;100.00;100847.19;5009100;28;20024;-76
2022/10/02 03:01:19;;;;;;;15.15;2.55;;;;;;;15.82;100.00;100842.75;5058414;28;20040;-76
2022/10/02 03:03:45;;;;;;;15.85;2.20;;;;;;;15.82;100.00;100839.09;5038463;28;20037;-76
2022/10/02 03:06:20;;;;;;;14.98;2.60;;;;;;;15.82;100.00;100839.09;5029500;28;20037;-75
2022/10/02 03:08:46;;;;;;;16.50;2.45;;;;;;;15.83;100.00;100837.97;5055094;28;20049;-76
2022/10/02 03:11:14;;;;;;;15.02;2.92;;;;;;;15.81;100.00;100837.47;5014201;28;20045;-76
2022/10/02 03:13:55;;;;;;;14.48;2.58;;;;;;;15.81;100.00;100831.84;5036775;28;20036;-76
2022/10/02 03:16:41;;;;;;;17.60;3.22;;;;;;;15.82;100.00;100837.16;5070359;28;20036;-75
2022/10/02 03:19:44;;;;;;;13.90;2.80;;;;;;;15.78;100.00;100838.09;5037683;28;20098;-75
2022/10/02 03:22:34;;;;;;;18.25;3.10;;;;;;;15.79;100.00;100834.13;5071461;28;20037;-76
2022/10/02 03:25:06;;;;;;;17.88;3.08;;;;;;;15.77;100.00;100834.47;5084654;28;20105;-76
2022/10/02 03:27:34;;;;;;;17.60;3.37;;;;;;;15.77;100.00;100840.06;5038261;28;20083;-76
2022/10/02 03:30:10;;;;;;;16.98;3.67;;;;;;;15.74;100.00;100832.31;5008683;28;20504;-76
2022/10/02 03:32:37;;;;;;;17.70;2.97;;;;;;;15.75;100.00;100831.16;5008500;28;20028;-75
2022/10/02 03:35:03;;;;;;;24.30;4.05;;;;;;;15.75;100.00;100833.16;5014211;28;20033;-75
2022/10/02 03:37:29;;;;;;;18.45;3.25;;;;;;;15.73;100.00;100827.03;5026910;28;20037;-76
2022/10/02 03:39:59;;;;;;;20.50;3.78;;;;;;;15.71;100.00;100827.38;5037765;28;20044;-76
2022/10/02 03:42:25;;;;;;;17.67;3.30;;;;;;;15.73;100.00;100825.06;5034928;28;20025;-76
2022/10/02 03:44:51;;;;;;;19.20;3.65;;;;;;;15.73;100.00;100824.22;5015177;28;20025;-75
2022/10/02 03:47:16;;;;;;;18.10;3.28;;;;;;;15.71;100.00;100823.72;5024612;28;20040;-75
2022/10/02 03:49:42;;;;;;;20.45;4.30;;;;;;;15.71;100.00;100821.78;5038902;28;20029;-76
2022/10/02 03:52:12;;;;;;;18.15;3.25;;;;;;;15.70;100.00;100819.28;5041915;28;20021;-77
2022/10/02 03:54:38;;;;;;;25.23;4.18;;;;;;;15.72;100.00;100822.59;5012402;28;20028;-76
2022/10/02 03:57:06;;;;;;;20.92;3.15;;;;;;;15.71;100.00;100820.91;5025478;28;20025;-75
2022/10/02 03:59:46;;;;;;;20.35;4.03;;;;;;;15.71;100.00;100827.38;5017787;28;20028;-76
2022/10/02 04:02:21;;;;;;;12.80;3.20;;;;;;;15.71;100.00;100816.16;5011117;28;20033;-76
2022/10/02 04:04:53;;;;;;;21.17;3.53;;;;;;;15.72;100.00;100812.22;5012417;28;20067;-76
2022/10/02 04:07:21;;;;;;;25.92;4.25;;;;;;;15.71;100.00;100816.16;5026119;28;20040;-76
2022/10/02 04:09:56;;;;;;;16.27;3.30;;;;;;;15.69;100.00;100812.84;5027280;28;20621;-76
2022/10/02 04:12:47;;;;;;;27.33;4.07;;;;;;;15.69;100.00;100818.47;5045666;28;20028;-76
2022/10/02 04:15:31;;;;;;;17.45;3.40;;;;;;;15.70;100.00;100814.50;5051900;28;20512;-76
2022/10/02 04:17:57;;;;;;;20.88;3.83;;;;;;;15.70;100.00;100827.69;5013064;28;20081;-76
2022/10/02 04:20:25;;;;;;;23.60;4.43;;;;;;;15.71;100.00;100815.31;5079601;28;20058;-76
2022/10/02 04:22:58;;;;;;;15.75;3.10;;;;;;;15.69;100.00;100818.47;5044934;28;20064;-76
2022/10/02 04:25:28;;;;;;;20.73;3.55;;;;;;;15.67;100.00;100825.50;5045049;28;20035;-75
2022/10/02 04:28:04;;;;;;;26.27;4.00;;;;;;;15.70;100.00;100824.88;5044764;28;20058;-75
2022/10/02 04:30:29;;;;;;;21.27;3.63;;;;;;;15.70;100.00;100825.69;5012149;28;20058;-76
2022/10/02 04:33:09;;;;;;;22.33;4.50;;;;;;;15.71;100.00;100824.56;5028361;28;20409;-76
2022/10/02 04:35:44;;;;;;;15.65;3.53;;;;;;;15.74;100.00;100835.13;5029691;28;20020;-76
2022/10/02 04:38:27;;;;;;;11.30;2.75;;;;;;;15.73;100.00;100835.44;5052298;28;20024;-75
2022/10/02 04:40:56;;;;;;;14.20;3.13;;;;;;;15.73;100.00;100829.84;5063401;28;20062;-76
2022/10/02 04:43:55;;;;;;;14.80;3.05;;;;;;;15.72;100.00;100837.41;5060973;28;20481;-75
2022/10/02 04:46:49;;;;;;;14.25;2.85;;;;;;;15.72;100.00;100839.38;5054197;28;20029;-76
2022/10/02 04:49:20;;;;;;;;;;;;;;;15.71;100.00;100838.56;5076755;28;20033;-76
2022/10/02 04:52:08;;;;;;;12.38;2.92;;;;;;;15.72;100.00;100837.41;5052594;28;19947;-75
2022/10/02 04:54:40;;;;;;;11.35;2.50;;;;;;;15.73;100.00;100836.25;5034822;28;20050;-76
2022/10/02 04:57:12;;;;;;;;;;;;;;;15.75;100.00;100838.75;5048690;28;20041;-75
2022/10/02 04:59:59;;;;;;;12.70;2.55;;;;;;;15.74;100.00;100840.72;5078849;28;19916;-75
2022/10/02 05:02:49;;;;;;;11.65;2.53;;;;;;;15.71;100.00;100844.16;5061231;28;20032;-75
2022/10/02 05:05:39;;;;;;;10.85;2.70;;;;;;;15.71;100.00;100849.78;5052616;28;20052;-76
2022/10/02 05:08:20;;;;;;;10.57;2.65;;;;;;;15.73;100.00;100843.84;5050333;28;20081;-76
2022/10/02 05:11:13;;;;;;;10.13;2.63;;;;;;;15.74;100.00;100848.28;5030382;28;20059;-76
2022/10/02 05:14:01;;;;;;;12.18;2.55;;;;;;;15.72;100.00;100845.81;5027090;28;20029;-76
2022/10/02 05:16:42;;;;;;;9.70;2.20;;;;;;;15.73;100.00;100855.03;5060599;28;20036;-76
2022/10/02 05:19:16;;;;;;;8.50;2.35;;;;;;;15.72;100.00;100857.00;5078222;28;20032;-76
2022/10/02 05:21:58;;;;;;;8.63;2.20;;;;;;;15.70;100.00;100862.09;5060095;28;20036;-77
2022/10/02 05:24:49;;;;;;;11.18;2.08;;;;;;;15.69;100.00;100857.66;5045039;28;20481;-76
2022/10/02 05:27:36;;;;;;;9.45;1.98;;;;;;;15.68;100.00;100861.59;5034426;28;20055;-79
2022/10/02 05:30:04;;;;;;;8.63;1.90;;;;;;;15.67;100.00;100853.50;5051029;28;20373;-76
2022/10/02 05:32:36;;;;;;;8.05;1.58;;;;;;;15.65;100.00;100859.41;5027239;28;20031;-75
2022/10/02 05:35:33;;;;;;;8.02;1.98;;;;;;;15.62;100.00;100871.22;5043345;28;20044;-75
2022/10/02 05:38:05;;;;;;;8.50;1.92;;;;;;;15.61;100.00;100864.00;5028974;28;20032;-75
2022/10/02 05:40:40;;;;;;;15.18;2.17;;;;;;;15.60;100.00;100865.97;5059499;28;20549;-75
2022/10/02 05:43:21;;;;;;;7.95;1.90;;;;;;;15.60;100.00;100870.72;5059855;28;20040;-76
2022/10/02 05:45:54;;;;;;;8.55;2.33;;;;;;;15.57;100.00;100868.56;5060258;28;20064;-75
2022/10/02 05:48:25;;;;;;;7.22;1.60;;;;;;;15.57;100.00;100868.56;5023901;28;20063;-76
2022/10/02 05:50:52;;;;;;;7.13;1.80;;;;;;;15.56;100.00;100864.13;5045098;28;20044;-75
2022/10/02 05:53:41;;;;;;;7.57;1.77;;;;;;;15.56;100.00;100866.91;5042313;28;20021;-75
2022/10/02 05:56:11;;;;;;;7.82;1.50;;;;;;;15.54;100.00;100872.81;5056371;28;20048;-75
2022/10/02 05:58:52;;;;;;;6.63;1.73;;;;;;;15.55;100.00;100871.69;5093240;28;20081;-75
2022/10/02 06:01:22;;;;;;;8.20;1.58;;;;;;;15.53;100.00;100871.19;5027150;28;20048;-76
2022/10/02 06:03:49;;;;;;;6.63;1.42;;;;;;;15.52;100.00;100869.53;5026122;28;20060;-75
2022/10/02 06:06:29;;;;;;;8.82;1.60;;;;;;;15.50;100.00;100871.00;5042820;28;20037;-75
2022/10/02 06:08:57;;;;;;;7.72;1.90;;;;;;;15.51;100.00;100875.44;5063532;28;20040;-76
2022/10/02 06:11:28;;;;;;;8.43;1.40;;;;;;;15.50;100.00;100890.59;5026522;28;20082;-75
2022/10/02 06:14:20;;;;;;;6.18;1.40;;;;;;;15.48;100.00;100899.28;5022706;28;20037;-76
2022/10/02 06:16:50;;;;;;;10.93;1.92;;;;;;;15.49;100.00;100898.16;5029689;28;20063;-76
2022/10/02 06:19:33;;;;;;;6.35;1.38;;;;;;;15.47;100.00;100905.22;5010125;28;20049;-76
2022/10/02 06:22:05;;;;;;;7.03;1.73;;;;;;;15.47;100.00;100899.63;5032374;28;20040;-70
2022/10/02 06:24:38;;;;;;;7.53;1.70;;;;;;;15.46;100.00;100900.75;5042954;28;20103;-75
2022/10/02 06:27:14;;;;;;;6.75;1.88;;;;;;;15.44;100.00;100903.06;5026571;28;20028;-75
2022/10/02 06:29:43;;;;;;;6.18;1.50;;;;;;;15.45;100.00;100885.94;5055097;28;20064;-76
2022/10/02 06:32:36;;;;;;;10.15;1.80;;;;;;;15.44;100.00;100892.69;5046933;28;20112;-75
2022/10/02 06:35:10;;;;;;;10.60;1.50;;;;;;;15.43;100.00;100893.81;5030852;28;20060;-75
2022/10/02 06:37:50;;;;;;;8.75;1.67;;;;;;;15.43;100.00;100896.63;5026673;28;20111;-75
2022/10/02 06:40:44;;;;;;;12.95;1.90;;;;;;;15.42;100.00;100893.00;5042307;28;20041;-76
2022/10/02 06:43:39;;;;;;;8.27;1.85;;;;;;;15.45;100.00;100896.31;5047357;28;20067;-76
2022/10/02 06:46:32;;;;;;;10.77;2.10;;;;;;;15.45;100.00;100896.31;5023659;28;20119;-76
2022/10/02 06:49:09;;;;;;;9.25;2.00;;;;;;;15.45;100.00;100907.50;5051558;28;20126;-76
2022/10/02 06:51:44;;;;;;;8.32;1.63;;;;;;;15.44;100.00;100912.28;5026324;28;20029;-76
2022/10/02 06:54:41;;;;;;;12.02;2.28;;;;;;;15.45;100.00;100915.91;5010046;28;20028;-76
2022/10/02 06:57:22;;;;;;;6.95;1.77;;;;;;;15.47;100.00;100917.25;5044635;28;20024;-76
2022/10/02 07:00:15;;;;;;;6.97;2.00;;;;;;;15.45;100.00;100922.31;5047615;28;20507;-76
2022/10/02 07:03:15;;;;;;;5.57;1.70;;;;;;;15.47;100.00;100922.03;5025915;28;20066;-77
2022/10/02 07:05:52;;;;;;;6.90;1.50;;;;;;;15.48;100.00;100920.88;5026215;28;20043;-77
2022/10/02 07:08:48;;;;;;;11.80;2.33;;;;;;;15.47;100.00;100922.03;5025289;28;20028;-78
2022/10/02 07:11:25;;;;;;;7.50;1.50;;;;;;;15.49;100.00;100926.16;5064209;28;20078;-70
2022/10/02 07:14:29;;;;;;;12.30;2.20;;;;;;;15.50;100.00;100933.41;5063640;28;20035;-78
2022/10/02 07:17:19;;;;;;;5.85;1.70;;;;;;;15.53;100.00;100940.34;5041393;28;20056;-78
2022/10/02 07:20:09;;;;;;;6.93;1.73;;;;;;;15.58;100.00;100937.41;5076060;28;20063;-79
2022/10/02 07:23:05;;;;;;;8.18;2.08;;;;;;;15.62;100.00;100936.44;5037845;28;20371;-78
2022/10/02 07:26:16;;;;;;;8.85;1.58;;;;;;;15.66;100.00;100939.47;5031441;28;20031;-78
2022/10/02 07:28:49;;;;;;;7.57;1.70;;;;;;;15.70;100.00;100951.69;5030227;28;20040;-79
2022/10/02 07:31:33;;;;;;;10.55;1.88;;;;;;;15.74;100.00;100955.53;5043672;28;20035;-78
2022/10/02 07:34:05;;;;;;;6.00;1.83;;;;;;;15.79;100.00;100948.97;5076009;28;20067;-78
2022/10/02 07:36:58;;;;;;;5.77;1.70;;;;;;;15.82;100.00;100948.31;5024891;28;20498;-78
2022/10/02 07:39:27;;;;;;;;;;;;;;;15.88;100.00;100949.00;5056803;28;20107;-78
2022/10/02 07:42:08;;;;;;;7.88;1.60;;;;;;;15.92;100.00;100961.25;5057948;28;19912;-78
2022/10/02 07:44:46;;;;;;;9.40;1.95;;;;;;;15.97;100.00;100955.53;5046073;28;20376;-78
2022/10/02 07:47:14;;;;;;;8.40;1.98;;;;;;;16.00;100.00;100952.91;5062589;28;20044;-80
2022/10/02 07:50:02;;;;;;;8.05;1.83;;;;;;;16.04;100.00;100947.47;5075925;28;20086;-78
2022/10/02 07:52:31;;;;;;;9.73;1.83;;;;;;;16.09;100.00;100945.38;5010364;28;20053;-78
2022/10/02 07:55:00;;;;;;;9.02;1.75;;;;;;;16.15;100.00;100943.25;5035622;28;20028;-78
2022/10/02 07:57:29;;;;;;;7.13;1.75;;;;;;;16.18;100.00;100945.41;5057875;28;20044;-78
2022/10/02 07:59:58;;;;;;;7.70;1.98;;;;;;;16.22;100.00;100943.63;5045480;28;20033;-78
2022/10/02 08:02:29;;;;;;;12.10;2.25;;;;;;;16.33;100.00;100943.38;5025196;28;20055;-78
2022/10/02 08:04:59;;;;;;;8.38;2.13;;;;;;;16.41;100.00;100948.16;5008678;28;20063;-79
2022/10/02 08:07:24;;;;;;;7.93;2.15;;;;;;;16.48;100.00;100946.53;5025134;28;20024;-78
2022/10/02 08:09:50;;;;;;;9.57;1.98;;;;;;;16.59;100.00;100961.09;5025873;28;20480;-79
2022/10/02 08:12:39;;;;;;;7.32;2.03;;;;;;;16.68;100.00;100956.34;5018558;28;20044;-78
2022/10/02 08:15:05;;;;;;;8.40;1.70;;;;;;;16.82;100.00;100966.66;5024185;28;20388;-78
2022/10/02 08:17:51;;;;;;;9.40;2.38;;;;;;;16.94;100.00;100966.88;5075879;28;20032;-78
2022/10/02 08:20:38;;;;;;;6.40;1.88;;;;;;;17.04;100.00;100963.75;5008694;28;20236;-78
2022/10/02 08:23:25;;;;;;;7.75;1.75;;;;;;;17.14;100.00;100962.63;5008415;28;20615;-78
2022/10/02 08:25:57;;;;;;;9.23;2.13;;;;;;;17.25;100.00;100965.94;5066975;28;20074;-78
2022/10/02 08:28:43;;;;;;;10.88;2.10;;;;;;;17.33;100.00;100967.94;5040501;28;20397;-78
2022/10/02 08:31:13;;;;;;;13.18;2.03;;;;;;;17.41;100.00;100979.19;5041302;28;20025;-78
2022/10/02 08:33:38;;;;;;;11.07;2.20;;;;;;;17.47;100.00;100982.66;5041567;28;20063;-79
2022/10/02 08:36:17;;;;;;;7.47;1.40;;;;;;;17.54;100.00;100984.97;5057505;28;20029;-79
2022/10/02 08:38:50;;;;;;;11.13;2.15;;;;;;;17.65;100.00;100987.09;5034086;28;20048;-79
2022/10/02 08:41:37;;;;;;;9.43;1.98;;;;;;;17.76;100.00;100993.22;5045022;28;20067;-78
2022/10/02 08:44:23;;;;;;;9.20;1.98;;;;;;;17.87;100.00;100990.94;5027961;28;20036;-79
2022/10/02 08:47:06;;;;;;;11.48;1.90;;;;;;;17.97;100.00;100990.59;5002229;28;20031;-79
2022/10/02 08:49:46;;;;;;;8.77;1.83;;;;;;;18.04;100.00;100996.53;5084026;28;20036;-78
2022/10/02 08:52:37;;;;;;;5.88;1.65;;;;;;;18.15;100.00;100991.38;5065636;28;20020;-78
2022/10/02 08:55:21;;;;;;;11.02;1.88;;;;;;;18.21;100.00;100995.66;5028010;28;20037;-78
2022/10/02 08:57:57;;;;;;;14.45;2.53;;;;;;;18.30;100.00;101004.06;5060302;28;20037;-78
2022/10/02 09:00:54;;;;;;;11.75;2.53;;;;;;;18.33;100.00;101006.25;5057079;28;20033;-78
2022/10/02 09:03:43;;;;;;;10.20;1.75;;;;;;;18.38;100.00;101006.03;5040970;28;20048;-78
2022/10/02 09:06:27;;;;;;;13.05;2.80;;;;;;;18.42;100.00;101011.84;5051198;28;20120;-79
2022/10/02 09:09:11;;;;;;;11.07;2.20;;;;;;;18.44;100.00;101009.50;5060774;28;20058;-79
2022/10/02 09:12:03;;;;;;;13.07;2.47;;;;;;;18.46;100.00;101012.81;5070011;28;20048;-79
2022/10/02 09:14:44;;;;;;;11.73;2.22;;;;;;;18.49;100.00;101012.13;5040278;28;20037;-79
2022/10/02 09:17:45;;;;;;;14.85;2.45;;;;;;;18.50;100.00;101014.63;5031785;28;20456;-79
2022/10/02 09:20:41;;;;;;;12.70;2.30;;;;;;;18.52;100.00;101005.84;5029712;28;20432;-79
2022/10/02 09:23:25;;;;;;;13.30;2.28;;;;;;;18.54;100.00;101009.97;5043481;28;20036;-80
2022/10/02 09:26:03;;;;;;;12.85;2.78;;;;;;;18.57;100.00;101008.47;5060139;28;20391;-79
2022/10/02 09:28:41;;;;;;;11.68;2.40;;;;;;;18.60;100.00;101010.63;5031949;28;20056;-79
2022/10/02 09:31:30;;;;;;;10.02;2.15;;;;;;;18.65;100.00;101015.25;5043654;28;20059;-79
2022/10/02 09:34:23;;;;;;;10.48;2.35;;;;;;;18.73;100.00;101011.56;5043441;28;20054;-79
2022/10/02 09:36:59;;;;;;;13.05;2.47;;;;;;;18.79;100.00;101004.63;5049932;28;20032;-79
2022/10/02 09:39:56;;;;;;;11.48;2.55;;;;;;;18.86;100.00;101004.94;5033310;28;20397;-79
2022/10/02 09:42:40;;;;;;;14.23;2.40;;;;;;;18.92;100.00;100992.31;5026753;28;20044;-79
2022/10/02 09:45:24;;;;;;;11.20;2.45;;;;;;;18.98;100.00;100999.41;5043443;28;20115;-79
2022/10/02 09:48:20;;;;;;;14.27;2.45;;;;;;;19.05;100.00;100998.03;5042838;28;20028;-78
2022/10/02 09:51:23;;;;;;;13.82;2.78;;;;;;;19.07;100.00;100998.53;5043126;28;20062;-79
2022/10/02 09:54:20;;;;;;;10.35;2.28;;;;;;;19.07;100.00;101004.97;5058847;28;20517;-78
2022/10/02 09:57:23;;;;;;;14.52;2.70;;;;;;;19.06;100.00;101006.16;5028176;28;20535;-78
2022/10/02 10:00:07;;;;;;;11.85;2.00;;;;;;;19.04;100.00;101004.84;5043038;28;20086;-78
2022/10/02 10:02:47;;;;;;;13.27;2.65;;;;;;;19.03;100.00;101006.84;5092352;28;20435;-78
2022/10/02 10:05:24;;;;;;;12.30;2.45;;;;;;;19.05;100.00;101004.47;5028893;28;20054;-78
2022/10/02 10:07:56;;;;;;;14.18;2.40;;;;;;;19.00;100.00;101015.97;5061256;28;20103;-77
2022/10/02 10:10:44;;;;;;;12.63;2.42;;;;;;;19.00;100.00;101015.97;5058515;28;20048;-80
2022/10/02 10:13:21;;;;;;;14.40;2.25;;;;;;;18.98;100.00;101007.00;5058641;28;20024;-77
2022/10/02 10:16:04;;;;;;;13.68;2.40;;;;;;;19.01;100.00;101005.50;5063495;28;20481;-77
2022/10/02 10:19:07;;;;;;;11.65;2.72;;;;;;;19.03;100.00;101014.44;5063101;28;20110;-77
2022/10/02 10:22:14;;;;;;;10.73;1.83;;;;;;;19.06;100.00;101014.59;5054782;28;20054;-77
2022/10/02 10:25:04;;;;;;;8.43;1.90;;;;;;;19.12;100.00;101015.22;5060631;28;20059;-77
2022/10/02 10:27:30;;;;;;;10.57;1.92;;;;;;;19.19;100.00;101019.16;5065279;28;20051;-77
2022/10/02 10:30:13;;;;;;;13.95;2.58;;;;;;;19.29;100.00;101015.13;5059807;28;20032;-77
2022/10/02 10:32:45;;;;;;;16.15;3.25;;;;;;;19.38;100.00;101010.25;5080549;28;20032;-77
2022/10/02 10:35:52;;;;;;;14.18;2.70;;;;;;;19.49;100.00;101010.66;5063434;28;20044;-76
2022/10/02 10:38:39;;;;;;;13.65;1.90;;;;;;;19.64;100.00;101012.06;5053299;28;20043;-77
2022/10/02 10:41:11;;;;;;;10.45;1.63;;;;;;;19.82;100.00;101015.59;5075907;28;20606;-77
2022/10/02 10:43:52;;;;;;;8.43;1.73;;;;;;;20.00;100.00;101007.78;5071059;28;20036;-77
2022/10/02 10:46:30;;;;;;;11.27;1.98;;;;;;;20.20;100.00;100998.47;5046124;28;20044;-77
2022/10/02 10:49:29;;;;;;;9.40;1.70;;;;;;;20.40;100.00;101001.59;5052922;28;20043;-77
2022/10/02 10:52:28;;;;;;;9.40;1.67;;;;;;;20.61;100.00;101008.00;5053105;28;20042;-77
2022/10/02 10:55:06;;;;;;;14.55;2.90;;;;;;;20.84;99.88;101005.56;5028011;28;20408;-77
2022/10/02 10:57:38;;;;;;;12.25;1.77;;;;;;;21.00;96.51;101004.84;5057952;28;20032;-77
2022/10/02 11:00:18;;;;;;;12.38;1.67;;;;;;;21.12;96.00;101005.69;5077994;28;20118;-77
2022/10/02 11:03:18;;;;;;;10.10;1.75;;;;;;;21.24;94.68;101004.03;5057979;28;20036;-77
2022/10/02 11:06:16;;;;;;;8.70;1.70;;;;;;;21.31;92.83;101013.56;5029479;28;20508;-77
2022/10/02 11:09:12;;;;;;;10.05;1.77;;;;;;;21.35;91.30;101022.97;5069953;28;20032;-77
2022/10/02 11:11:42;;;;;;;8.63;1.70;;;;;;;21.38;90.08;101015.81;5049566;28;20040;-76
2022/10/02 11:14:36;;;;;;;10.75;1.90;;;;;;;21.39;88.32;101020.28;5058440;28;20086;-77
2022/10/02 11:17:56;;;;;;;10.43;1.73;;;;;;;21.46;88.76;101022.53;5076113;28;20043;-77
2022/10/02 11:20:33;;;;;;;14.75;1.75;;;;;;;21.51;87.32;101020.28;4974714;28;20039;-77
2022/10/02 11:23:17;;;;;;;10.93;2.03;;;;;;;21.53;86.79;101015.06;5052888;28;20041;-72
2022/10/02 11:26:01;;;;;;;9.30;1.67;;;;;;;21.55;85.08;101018.38;5027113;28;20024;-76
2022/10/02 11:28:45;;;;;;;10.45;1.70;;;;;;;21.56;84.40;101028.50;5055289;28;20032;-76
2022/10/02 11:31:32;;;;;;;8.77;1.60;;;;;;;21.56;82.81;101022.84;5080118;28;20032;-76
2022/10/02 11:34:25;;;;;;;8.18;1.42;;;;;;;21.59;83.63;101021.28;5058102;28;20032;-76
2022/10/02 11:37:04;;;;;;;9.05;1.58;;;;;;;21.63;83.76;101030.72;5059234;28;20042;-76
2022/10/02 11:40:07;;;;;;;7.47;1.45;;;;;;;21.62;81.86;101024.25;5045969;28;20071;-76
2022/10/02 11:42:43;;;;;;;11.52;1.83;;;;;;;21.62;81.91;101031.91;5061773;28;20032;-76
2022/10/02 11:45:15;;;;;;;5.55;1.17;;;;;;;21.56;80.90;101031.34;5069220;28;20039;-76
2022/10/02 11:48:11;;;;;;;7.22;1.48;;;;;;;21.56;79.19;101038.97;5032425;28;20033;-77
2022/10/02 11:50:56;;;;;;;6.63;1.60;;;;;;;21.50;78.69;101041.22;5040940;28;20058;-76
2022/10/02 11:54:03;;;;;;;7.78;1.38;;;;;;;21.44;79.67;101036.16;5061516;28;20031;-76
2022/10/02 11:56:41;;;;;;;5.57;1.45;;;;;;;21.35;78.95;101031.44;5040044;28;20044;-76
2022/10/02 11:59:26;;;;;;;9.00;1.90;;;;;;;21.31;79.12;101038.16;5057795;28;20484;-76
2022/10/02 12:01:53;;;;;;;11.93;2.08;;;;;;;21.29;79.59;101034.88;5075640;28;20033;-76
2022/10/02 12:04:39;;;;;;;8.50;1.80;;;;;;;21.23;80.03;101031.47;5059805;28;20031;-76
2022/10/02 12:07:16;;;;;;;9.45;1.98;;;;;;;21.16;80.82;101042.50;5061948;28;20103;-76
2022/10/02 12:09:54;;;;;;;5.43;1.30;;;;;;;21.11;80.93;101032.25;5025949;28;20032;-76
2022/10/02 12:12:41;;;;;;;9.90;1.80;;;;;;;21.07;81.83;101031.34;5065413;28;20029;-76